Time;durP1;ratioP1;P1;durP2;ratioP2;P2;SDS_P1;SDS_P2;PMS_P1;PMS_P2;Temp;Humidity;BMP_temperature;BMP_pressure;BME280_temperature;BME280_humidity;BME280_pressure;Samples;Min_cycle;Max_cycle;Signal;HPM_P1;HPM_P2
2022/06/29 00:01:26;;;;;;;5.93;4.40;;;10.90;99.90;;;;;;5053202;28;20755;-88
2022/06/29 00:03:53;;;;;;;7.03;4.32;;;11.10;99.90;;;;;;5054027;28;20790;-87
2022/06/29 00:06:20;;;;;;;7.25;5.47;;;11.10;99.90;;;;;;5054855;28;20372;-88
2022/06/29 00:08:47;;;;;;;7.32;5.65;;;11.20;99.90;;;;;;5054532;28;20449;-88
2022/06/29 00:11:14;;;;;;;8.15;5.43;;;11.40;99.90;;;;;;5053107;28;20372;-87
2022/06/29 00:13:41;;;;;;;7.68;5.20;;;11.50;99.90;;;;;;5052844;28;20477;-87
2022/06/29 00:16:09;;;;;;;7.93;5.20;;;11.60;99.90;;;;;;5052614;28;20400;-84
2022/06/29 00:18:37;;;;;;;7.17;5.07;;;11.70;99.90;;;;;;5052730;28;20736;-87
2022/06/29 00:21:04;;;;;;;8.48;4.82;;;11.80;99.90;;;;;;5052781;28;20375;-87
2022/06/29 00:23:31;;;;;;;6.10;4.80;;;11.90;99.90;;;;;;5051548;28;20774;-87
2022/06/29 00:25:58;;;;;;;7.25;4.80;;;12.00;99.90;;;;;;5052558;28;20372;-84
2022/06/29 00:28:26;;;;;;;7.35;4.57;;;12.20;99.90;;;;;;5052770;28;20743;-86
2022/06/29 00:30:53;;;;;;;8.65;4.50;;;12.30;99.90;;;;;;5051714;28;20787;-82
2022/06/29 00:33:20;;;;;;;6.30;4.15;;;12.40;99.90;;;;;;5053212;28;20406;-89
2022/06/29 00:35:49;;;;;;;5.25;3.10;;;12.60;99.90;;;;;;5053891;28;20429;-88
2022/06/29 00:38:16;;;;;;;5.10;2.72;;;12.60;99.90;;;;;;5055014;28;20863;-85
2022/06/29 00:40:44;;;;;;;4.50;2.83;;;12.90;99.90;;;;;;5052474;28;20403;-86
2022/06/29 00:43:11;;;;;;;4.30;2.80;;;13.00;99.90;;;;;;5052711;28;20433;-87
2022/06/29 00:45:38;;;;;;;4.25;2.80;;;13.00;99.90;;;;;;5052866;28;20863;-84
2022/06/29 00:48:06;;;;;;;5.37;2.70;;;13.20;99.90;;;;;;5052277;28;20387;-84
2022/06/29 00:50:34;;;;;;;4.18;2.70;;;13.30;99.90;;;;;;5052184;28;20433;-85
2022/06/29 00:53:03;;;;;;;4.65;2.58;;;13.50;99.90;;;;;;5052098;28;20403;-84
2022/06/29 00:55:36;;;;;;;6.70;2.65;;;13.60;99.90;;;;;;5052297;28;20380;-86
2022/06/29 00:58:07;;;;;;;4.68;1.55;;;13.70;99.90;;;;;;5052791;28;20437;-82
2022/06/29 01:00:34;;;;;;;5.15;1.40;;;13.90;99.90;;;;;;5053846;28;20368;-85
2022/06/29 01:03:02;;;;;;;5.00;1.70;;;13.90;99.90;;;;;;5054119;28;20430;-84
2022/06/29 01:05:31;;;;;;;6.43;2.08;;;14.00;99.90;;;;;;5052361;28;20383;-83
2022/06/29 01:07:59;;;;;;;4.10;2.03;;;14.10;99.90;;;;;;5052177;28;20384;-83
2022/06/29 01:10:27;;;;;;;3.47;1.60;;;14.10;99.90;;;;;;5052918;28;20399;-83
2022/06/29 01:12:54;;;;;;;4.25;1.90;;;14.30;99.90;;;;;;5052639;28;20482;-85
2022/06/29 01:15:22;;;;;;;5.55;2.38;;;14.40;99.90;;;;;;5051984;28;20426;-84
2022/06/29 01:17:49;;;;;;;5.30;1.70;;;14.40;99.90;;;;;;5052127;28;20374;-84
2022/06/29 01:20:18;;;;;;;3.95;1.85;;;14.50;99.90;;;;;;5052060;28;20397;-84
2022/06/29 01:22:46;;;;;;;3.00;1.75;;;14.60;99.90;;;;;;5052164;28;20917;-82
2022/06/29 01:25:13;;;;;;;3.67;1.90;;;14.80;99.90;;;;;;5052202;28;20471;-84
2022/06/29 01:27:41;;;;;;;3.40;1.80;;;14.80;99.90;;;;;;5052595;28;20380;-84
2022/06/29 01:30:09;;;;;;;7.28;1.98;;;14.80;99.90;;;;;;5052098;28;20391;-86
2022/06/29 01:32:40;;;;;;;3.47;1.90;;;14.90;99.90;;;;;;5051832;28;20403;-88
2022/06/29 01:35:13;;;;;;;3.10;1.80;;;15.00;99.90;;;;;;5051642;28;20813;-83
2022/06/29 01:37:41;;;;;;;4.72;1.60;;;15.00;99.90;;;;;;5051647;28;20919;-86
2022/06/29 01:40:10;;;;;;;3.23;1.40;;;15.10;99.90;;;;;;5051796;28;20895;-87
2022/06/29 01:42:37;;;;;;;3.57;1.50;;;15.30;99.90;;;;;;5054443;28;20379;-85
2022/06/29 01:45:06;;;;;;;3.88;1.73;;;15.40;99.90;;;;;;5056350;28;20376;-84
2022/06/29 01:47:33;;;;;;;3.10;1.67;;;15.50;99.90;;;;;;5056562;28;20787;-84
2022/06/29 01:50:00;;;;;;;3.37;1.00;;;15.50;99.90;;;;;;5061443;28;20427;-84
2022/06/29 01:52:27;;;;;;;4.35;1.20;;;15.40;99.90;;;;;;5063112;28;20805;-84
2022/06/29 01:54:54;;;;;;;3.58;1.15;;;15.40;99.90;;;;;;5057601;28;20422;-87
2022/06/29 01:57:21;;;;;;;2.88;1.33;;;15.60;99.90;;;;;;5056865;28;20384;-87
2022/06/29 01:59:48;;;;;;;2.50;1.13;;;15.80;99.90;;;;;;5055715;28;20887;-87
2022/06/29 02:02:15;;;;;;;2.63;1.13;;;15.80;99.90;;;;;;5055783;28;20380;-86
2022/06/29 02:04:43;;;;;;;3.47;1.20;;;15.80;99.80;;;;;;5055738;28;20920;-84
2022/06/29 02:07:10;;;;;;;3.65;1.30;;;15.80;99.90;;;;;;5055411;28;20379;-86
2022/06/29 02:09:37;;;;;;;2.78;1.02;;;15.90;99.90;;;;;;5055556;28;20391;-85
2022/06/29 02:12:04;;;;;;;3.63;1.05;;;16.10;99.90;;;;;;5055101;28;20479;-85
2022/06/29 02:14:31;;;;;;;3.47;1.10;;;16.30;98.90;;;;;;5055141;28;20453;-85
2022/06/29 02:17:01;;;;;;;3.37;0.90;;;16.50;99.10;;;;;;5055277;28;20364;-85
2022/06/29 02:19:29;;;;;;;3.15;0.90;;;16.50;98.80;;;;;;5055334;28;20376;-85
2022/06/29 02:21:56;;;;;;;4.43;0.95;;;16.60;99.00;;;;;;5054914;28;20376;-90
2022/06/29 02:24:23;;;;;;;4.60;0.93;;;16.50;98.60;;;;;;5055243;28;20383;-84
2022/06/29 02:26:50;;;;;;;2.38;0.88;;;16.50;98.80;;;;;;5054781;28;20368;-86
2022/06/29 02:29:17;;;;;;;2.03;0.90;;;16.60;98.10;;;;;;5054712;28;20394;-87
2022/06/29 02:34:46;;;;;;;3.53;1.20;;;16.70;97.90;;;;;;5055168;28;20465;-87
2022/06/29 02:37:14;;;;;;;2.70;0.90;;;17.00;98.20;;;;;;5054592;28;20384;-86
2022/06/29 02:39:45;;;;;;;3.42;0.90;;;17.00;97.10;;;;;;5054992;28;20372;-87
2022/06/29 02:42:14;;;;;;;4.28;0.80;;;17.00;96.40;;;;;;5054554;28;20372;-85
2022/06/29 02:44:42;;;;;;;2.60;0.80;;;17.00;96.40;;;;;;5054404;28;20459;-84
2022/06/29 02:47:10;;;;;;;3.30;0.70;;;17.10;95.20;;;;;;5054531;28;20446;-84
2022/06/29 02:49:41;;;;;;;3.42;0.82;;;17.20;94.60;;;;;;5055292;28;20403;-85
2022/06/29 02:52:08;;;;;;;3.88;0.80;;;17.20;94.80;;;;;;5054977;28;20477;-86
2022/06/29 02:54:37;;;;;;;2.78;0.80;;;17.30;93.70;;;;;;5053526;28;20386;-82
2022/06/29 02:57:04;;;;;;;2.43;0.70;;;17.30;93.30;;;;;;5055316;28;20388;-82
2022/06/29 02:59:32;;;;;;;3.20;0.82;;;17.20;93.70;;;;;;5055946;28;20490;-81
2022/06/29 03:01:59;;;;;;;2.60;0.70;;;17.30;93.80;;;;;;5054283;28;20437;-84
2022/06/29 03:04:26;;;;;;;2.67;0.80;;;17.50;93.20;;;;;;5053967;28;20380;-83
2022/06/29 03:06:53;;;;;;;2.53;0.80;;;17.60;92.20;;;;;;5053960;28;20446;-83
2022/06/29 03:09:20;;;;;;;2.92;0.70;;;17.60;92.20;;;;;;5057692;28;20388;-84
2022/06/29 03:11:47;;;;;;;1.48;0.70;;;17.70;92.10;;;;;;5054140;28;20372;-81
2022/06/29 03:14:14;;;;;;;1.73;0.50;;;17.70;91.70;;;;;;5058577;28;20411;-85
2022/06/29 03:16:41;;;;;;;2.67;0.70;;;17.70;91.20;;;;;;5053874;28;20372;-83
2022/06/29 03:19:09;;;;;;;1.98;0.65;;;17.80;91.30;;;;;;5053693;28;20387;-83
2022/06/29 03:21:36;;;;;;;3.97;0.90;;;17.70;90.90;;;;;;5053787;28;20390;-83
2022/06/29 03:24:06;;;;;;;3.83;0.70;;;17.60;91.40;;;;;;5053652;28;20380;-84
2022/06/29 03:26:33;;;;;;;2.67;0.80;;;17.50;91.20;;;;;;5053667;28;20460;-85
2022/06/29 03:29:01;;;;;;;2.63;0.60;;;17.40;91.30;;;;;;5053410;28;20384;-83
2022/06/29 03:31:28;;;;;;;2.37;0.70;;;17.40;91.50;;;;;;5053348;28;20395;-86
2022/06/29 03:33:55;;;;;;;3.30;0.70;;;17.40;91.60;;;;;;5054126;28;20913;-89
2022/06/29 03:36:22;;;;;;;1.90;0.70;;;17.50;91.80;;;;;;5054269;28;20424;-90
2022/06/29 03:38:49;;;;;;;3.20;0.90;;;17.50;91.60;;;;;;5053327;28;20441;-83
2022/06/29 03:41:16;;;;;;;2.80;1.33;;;17.50;91.80;;;;;;5053306;28;20790;-86
2022/06/29 03:43:43;;;;;;;2.42;0.70;;;17.50;91.20;;;;;;5053593;28;20384;-82
2022/06/29 03:46:11;;;;;;;1.98;0.70;;;17.50;91.30;;;;;;5053187;28;20376;-85
2022/06/29 03:48:38;;;;;;;2.53;0.70;;;17.60;91.00;;;;;;5053255;28;20384;-86
2022/06/29 03:51:05;;;;;;;2.27;0.77;;;17.80;90.90;;;;;;5053775;28;20371;-83
2022/06/29 03:53:32;;;;;;;2.67;0.60;;;18.10;90.30;;;;;;5053197;28;20969;-85
2022/06/29 03:55:59;;;;;;;2.65;0.60;;;18.20;89.10;;;;;;5053110;28;20736;-86
2022/06/29 03:58:26;;;;;;;1.65;0.70;;;18.30;87.60;;;;;;5052958;28;20380;-86
2022/06/29 04:00:53;;;;;;;1.98;0.70;;;18.30;87.20;;;;;;5054940;28;20408;-86
2022/06/29 04:03:21;;;;;;;3.63;0.60;;;18.10;87.10;;;;;;5052981;28;20484;-85
2022/06/29 04:05:48;;;;;;;2.30;0.70;;;18.00;88.90;;;;;;5051700;28;20384;-82
2022/06/29 04:08:15;;;;;;;2.40;0.70;;;18.10;88.50;;;;;;5052894;28;20436;-86
2022/06/29 04:10:42;;;;;;;3.78;0.73;;;18.20;87.40;;;;;;5052882;28;20888;-83
2022/06/29 04:13:10;;;;;;;4.55;0.80;;;18.30;87.40;;;;;;5052991;28;20407;-83
2022/06/29 04:15:37;;;;;;;3.10;0.67;;;18.20;86.80;;;;;;5052918;28;20833;-82
2022/06/29 04:18:04;;;;;;;2.88;0.70;;;18.10;86.00;;;;;;5052636;28;20376;-82
2022/06/29 04:23:16;;;;;;;3.45;0.60;;;18.10;86.50;;;;;;5052602;28;20370;-85
2022/06/29 04:25:43;;;;;;;2.45;0.88;;;18.10;87.40;;;;;;5052905;28;20863;-83
2022/06/29 04:28:10;;;;;;;1.90;0.68;;;18.10;86.80;;;;;;5052635;28;20376;-83
2022/06/29 04:30:38;;;;;;;1.40;0.60;;;18.00;85.30;;;;;;5052321;28;20399;-86
2022/06/29 04:33:05;;;;;;;2.43;0.70;;;18.00;85.90;;;;;;5052331;28;20404;-85
2022/06/29 04:35:36;;;;;;;3.30;0.70;;;18.00;86.30;;;;;;5052035;28;21428;-83
2022/06/29 04:38:03;;;;;;;1.90;0.60;;;17.90;85.50;;;;;;5053276;28;20379;-83
2022/06/29 04:40:30;;;;;;;2.28;0.98;;;17.90;86.60;;;;;;5051254;28;20894;-86
2022/06/29 04:42:57;;;;;;;4.55;1.35;;;18.00;86.60;;;;;;5052227;28;20384;-85
2022/06/29 04:48:10;;;;;;;3.20;0.60;;;17.90;87.40;;;;;;5052525;28;20382;-83
2022/06/29 04:50:37;;;;;;;1.90;0.70;;;17.80;87.10;;;;;;5052208;28;20371;-85
2022/06/29 04:53:04;;;;;;;2.67;0.60;;;17.60;86.80;;;;;;5051987;28;20391;-86
2022/06/29 04:55:31;;;;;;;2.38;0.60;;;17.50;88.30;;;;;;5052180;28;20435;-84
2022/06/29 04:57:58;;;;;;;2.95;0.70;;;17.50;87.80;;;;;;5052227;28;20376;-84
2022/06/29 05:00:25;;;;;;;2.97;0.80;;;17.30;88.50;;;;;;5052086;28;20391;-86
2022/06/29 05:02:52;;;;;;;2.63;1.00;;;17.10;89.00;;;;;;5051196;28;20375;-84
2022/06/29 05:05:20;;;;;;;4.80;1.30;;;17.00;89.40;;;;;;5052136;28;20380;-86
2022/06/29 05:07:47;;;;;;;2.72;0.70;;;16.90;90.50;;;;;;5052239;28;20453;-86
2022/06/29 05:10:15;;;;;;;2.65;0.60;;;16.80;90.80;;;;;;5052048;28;20505;-83
2022/06/29 05:12:43;;;;;;;4.63;0.90;;;16.80;90.50;;;;;;5052074;28;20396;-84
2022/06/29 05:15:10;;;;;;;4.07;1.23;;;16.70;91.10;;;;;;5051874;28;20383;-85
2022/06/29 05:17:37;;;;;;;2.10;0.60;;;16.70;91.50;;;;;;5054775;28;20376;-83
2022/06/29 05:20:09;;;;;;;1.50;0.60;;;16.70;91.20;;;;;;5055929;28;20379;-85
2022/06/29 05:22:36;;;;;;;1.50;0.60;;;16.60;91.70;;;;;;5057822;28;20796;-85
2022/06/29 05:25:04;;;;;;;2.35;0.80;;;16.60;91.50;;;;;;5055872;28;20384;-85
2022/06/29 05:27:31;;;;;;;2.70;0.82;;;16.50;91.70;;;;;;5055993;28;20375;-82
2022/06/29 05:29:59;;;;;;;2.20;0.70;;;16.50;91.80;;;;;;5055653;28;20426;-85
2022/06/29 05:32:26;;;;;;;3.47;0.80;;;16.40;92.20;;;;;;5055743;28;20921;-83
2022/06/29 05:34:53;;;;;;;1.92;0.70;;;16.30;92.50;;;;;;5055582;28;20398;-86
2022/06/29 05:37:20;;;;;;;2.92;0.80;;;16.20;93.00;;;;;;5055750;28;20370;-83
2022/06/29 05:39:47;;;;;;;4.47;0.80;;;16.00;93.50;;;;;;5055495;28;20391;-84
2022/06/29 05:42:15;;;;;;;2.30;0.70;;;15.90;94.10;;;;;;5055633;28;20889;-85
2022/06/29 05:44:42;;;;;;;2.88;0.70;;;15.80;94.20;;;;;;5055600;28;20972;-87
2022/06/29 05:47:09;;;;;;;3.42;0.80;;;15.80;94.60;;;;;;5055575;28;20379;-85
2022/06/29 05:49:37;;;;;;;3.88;0.70;;;15.70;94.70;;;;;;5055807;28;20375;-85
2022/06/29 05:52:08;;;;;;;1.10;0.60;;;15.70;95.20;;;;;;5056013;28;20843;-84
2022/06/29 05:54:35;;;;;;;5.10;0.85;;;15.60;95.40;;;;;;5056427;28;20872;-87
2022/06/29 05:57:02;;;;;;;5.13;0.80;;;15.50;95.80;;;;;;5055977;28;20390;-85
2022/06/29 05:59:29;;;;;;;4.50;0.90;;;15.40;96.30;;;;;;5055785;28;20471;-82
2022/06/29 06:01:56;;;;;;;1.95;0.77;;;15.40;97.00;;;;;;5056978;28;20367;-81
2022/06/29 06:04:25;;;;;;;4.38;1.00;;;15.40;97.10;;;;;;5055622;28;20471;-84
2022/06/29 06:06:52;;;;;;;3.63;1.30;;;15.40;97.50;;;;;;5055203;28;20490;-83
2022/06/29 06:09:24;;;;;;;3.00;1.10;;;15.30;97.50;;;;;;5055106;28;20388;-85
2022/06/29 06:11:56;;;;;;;3.50;1.20;;;15.40;97.80;;;;;;5054870;28;20372;-85
2022/06/29 06:14:24;;;;;;;2.80;0.90;;;15.40;98.00;;;;;;5055169;28;20395;-85
2022/06/29 06:16:51;;;;;;;2.17;0.87;;;15.40;98.30;;;;;;5054937;28;20380;-83
2022/06/29 06:19:18;;;;;;;4.38;1.13;;;15.40;98.30;;;;;;5054906;28;20382;-83
2022/06/29 06:21:45;;;;;;;2.92;1.00;;;15.50;98.30;;;;;;5054944;28;20911;-83
2022/06/29 06:24:12;;;;;;;3.50;1.00;;;15.50;98.30;;;;;;5054736;28;20418;-85
2022/06/29 06:26:39;;;;;;;3.07;1.10;;;15.50;97.90;;;;;;5054788;28;20461;-84
2022/06/29 06:29:07;;;;;;;3.13;0.85;;;15.40;98.20;;;;;;5053366;28;20426;-85
2022/06/29 06:31:34;;;;;;;3.45;0.98;;;15.30;98.50;;;;;;5054829;28;20449;-84
2022/06/29 06:34:02;;;;;;;3.67;1.10;;;15.20;99.00;;;;;;5054304;28;20546;-83
2022/06/29 06:36:29;;;;;;;4.25;0.90;;;15.10;99.20;;;;;;5055046;28;20371;-84
2022/06/29 06:38:56;;;;;;;5.23;1.00;;;15.00;99.50;;;;;;5054292;28;20376;-83
2022/06/29 06:41:25;;;;;;;3.85;1.10;;;14.90;99.90;;;;;;5054224;28;20375;-82
2022/06/29 06:43:54;;;;;;;2.75;1.08;;;14.80;99.90;;;;;;5054328;28;20732;-84
2022/06/29 06:46:22;;;;;;;4.90;1.15;;;14.70;99.90;;;;;;5054330;28;20375;-86
2022/06/29 06:48:50;;;;;;;2.38;1.20;;;14.60;99.90;;;;;;5054466;28;20383;-83
2022/06/29 06:51:18;;;;;;;4.43;1.20;;;14.50;99.90;;;;;;5054289;28;20387;-84
2022/06/29 06:53:46;;;;;;;4.05;1.40;;;14.40;99.90;;;;;;5054405;28;20891;-86
2022/06/29 06:56:15;;;;;;;3.78;1.45;;;14.40;99.90;;;;;;5054362;28;20874;-84
2022/06/29 06:58:42;;;;;;;4.53;1.50;;;14.30;99.90;;;;;;5054133;28;20444;-82
2022/06/29 07:01:11;;;;;;;5.70;2.05;;;14.20;99.90;;;;;;5054131;28;20404;-84
2022/06/29 07:03:39;;;;;;;6.75;2.03;;;14.00;99.90;;;;;;5054073;28;20380;-83
2022/06/29 07:06:08;;;;;;;6.03;1.63;;;13.90;99.90;;;;;;5054440;28;20459;-84
2022/06/29 07:08:37;;;;;;;9.40;4.38;;;13.50;99.90;;;;;;5053472;28;20380;-85
2022/06/29 07:11:06;;;;;;;11.27;7.35;;;13.70;99.90;;;;;;5054396;28;20372;-82
2022/06/29 07:13:34;;;;;;;36.78;25.15;;;13.60;99.90;;;;;;5054259;28;20491;-85
2022/06/29 07:16:05;;;;;;;25.10;15.77;;;13.50;99.90;;;;;;5055151;28;20954;-84
2022/06/29 07:18:34;;;;;;;43.75;27.15;;;13.40;99.90;;;;;;5054084;28;20376;-84
2022/06/29 07:21:02;;;;;;;16.05;8.45;;;13.30;99.90;;;;;;5053818;28;20375;-85
2022/06/29 07:23:30;;;;;;;9.75;3.47;;;13.20;99.90;;;;;;5060421;28;20410;-83
2022/06/29 07:25:57;;;;;;;9.48;4.80;;;13.20;99.90;;;;;;5055810;28;20811;-85
2022/06/29 07:28:25;;;;;;;9.10;4.05;;;13.20;99.90;;;;;;5053676;28;20418;-84
2022/06/29 07:30:52;;;;;;;7.07;3.43;;;13.20;99.90;;;;;;5053329;28;20403;-81
2022/06/29 07:33:19;;;;;;;8.20;2.70;;;13.10;99.90;;;;;;5053745;28;20403;-80
2022/06/29 07:35:46;;;;;;;5.82;2.50;;;13.20;99.90;;;;;;5053386;28;20379;-82
2022/06/29 07:38:13;;;;;;;7.65;2.60;;;13.10;99.90;;;;;;5053469;28;20398;-83
2022/06/29 07:40:41;;;;;;;5.83;2.30;;;13.10;99.90;;;;;;5053055;28;20372;-83
2022/06/29 07:43:32;;;;;;;6.00;2.10;;;13.10;99.90;;;;;;5053840;28;20931;-83
2022/06/29 07:45:59;;;;;;;7.25;1.83;;;13.00;99.90;;;;;;5052026;28;20372;-84
2022/06/29 07:48:26;;;;;;;7.50;2.42;;;13.00;99.90;;;;;;5054416;28;20376;-83
2022/06/29 07:50:54;;;;;;;4.75;2.10;;;13.00;99.90;;;;;;5054134;28;20408;-84
2022/06/29 07:53:21;;;;;;;11.40;2.20;;;13.00;99.90;;;;;;5052988;28;20442;-83
2022/06/29 07:55:48;;;;;;;7.03;2.20;;;12.90;99.90;;;;;;5052954;28;20433;-81
2022/06/29 07:58:16;;;;;;;7.45;2.40;;;12.90;99.90;;;;;;5052752;28;20390;-83
2022/06/29 08:00:44;;;;;;;7.43;2.25;;;12.90;99.90;;;;;;5052731;28;20387;-83
2022/06/29 08:03:12;;;;;;;10.82;2.00;;;12.80;99.90;;;;;;5052694;28;20458;-83
2022/06/29 08:05:40;;;;;;;5.15;1.90;;;12.80;99.90;;;;;;5052485;28;20367;-83
2022/06/29 08:08:07;;;;;;;6.10;2.30;;;12.80;99.90;;;;;;5052552;28;20891;-82
2022/06/29 08:10:35;;;;;;;4.70;2.25;;;12.70;99.90;;;;;;5052662;28;20750;-83
2022/06/29 08:13:02;;;;;;;5.88;2.20;;;12.80;99.90;;;;;;5052368;28;20395;-83
2022/06/29 08:15:30;;;;;;;5.10;2.30;;;12.80;99.90;;;;;;5051098;28;20383;-82
2022/06/29 08:17:57;;;;;;;6.55;2.00;;;12.80;99.90;;;;;;5052421;28;20364;-83
2022/06/29 08:20:25;;;;;;;5.78;2.28;;;12.70;99.90;;;;;;5052509;28;20434;-84
2022/06/29 08:22:52;;;;;;;5.60;2.07;;;12.80;99.90;;;;;;5052777;28;20406;-83
2022/06/29 08:25:19;;;;;;;5.00;2.25;;;12.80;99.90;;;;;;5052486;28;20384;-83
2022/06/29 08:27:53;;;;;;;6.05;1.95;;;12.80;99.90;;;;;;5052548;28;20399;-83
2022/06/29 08:30:21;;;;;;;4.93;1.88;;;12.80;99.90;;;;;;5052740;28;20868;-82
2022/06/29 08:32:49;;;;;;;5.07;2.03;;;12.80;99.90;;;;;;5052723;28;20419;-83
2022/06/29 08:35:17;;;;;;;4.65;2.20;;;12.80;99.90;;;;;;5052249;28;20955;-82
2022/06/29 08:37:46;;;;;;;4.63;1.90;;;12.80;99.90;;;;;;5052175;28;20439;-82
2022/06/29 08:40:17;;;;;;;4.95;1.80;;;12.80;99.90;;;;;;5052522;28;20431;-83
2022/06/29 08:42:47;;;;;;;5.78;1.80;;;12.80;99.90;;;;;;5052195;28;20368;-84
2022/06/29 08:45:14;;;;;;;4.90;2.00;;;12.70;99.90;;;;;;5051954;28;20982;-83
2022/06/29 08:47:42;;;;;;;6.18;1.80;;;12.70;99.90;;;;;;5052187;28;20384;-84
2022/06/29 08:50:10;;;;;;;6.38;2.10;;;12.70;99.90;;;;;;5052124;28;20371;-84
2022/06/29 08:52:39;;;;;;;4.90;2.10;;;12.60;99.90;;;;;;5051474;28;20486;-84
2022/06/29 08:55:09;;;;;;;3.88;1.95;;;12.60;99.90;;;;;;5052253;28;20414;-83
2022/06/29 08:57:38;;;;;;;6.30;2.17;;;12.60;99.90;;;;;;5051990;28;20363;-84
2022/06/29 09:00:07;;;;;;;4.35;2.00;;;12.60;99.90;;;;;;5052264;28;20415;-82
2022/06/29 09:02:35;;;;;;;3.50;2.30;;;12.50;99.90;;;;;;5052183;28;20775;-83
2022/06/29 09:05:03;;;;;;;3.93;2.43;;;12.50;99.90;;;;;;5052329;28;20487;-81
2022/06/29 09:07:30;;;;;;;4.38;2.42;;;12.40;99.90;;;;;;5053856;28;20426;-83
2022/06/29 09:10:18;;;;;;;6.53;2.42;;;12.40;99.90;;;;;;5052579;28;20380;-83
2022/06/29 09:12:50;;;;;;;4.88;3.08;;;12.30;99.90;;;;;;5052368;28;20755;-83
2022/06/29 09:15:28;;;;;;;4.37;2.50;;;12.30;99.90;;;;;;5051752;28;20732;-83
2022/06/29 09:17:55;;;;;;;7.63;2.83;;;12.20;99.90;;;;;;5052310;28;20372;-83
2022/06/29 09:20:23;;;;;;;6.53;3.30;;;12.10;99.90;;;;;;5051928;28;20368;-83
2022/06/29 09:22:55;;;;;;;5.88;3.92;;;12.00;99.90;;;;;;5051808;28;20380;-83
2022/06/29 09:25:30;;;;;;;5.93;3.53;;;11.90;99.90;;;;;;5051711;28;20368;-84
2022/06/29 09:27:58;;;;;;;7.50;4.70;;;11.80;99.90;;;;;;5052374;28;20447;-84
2022/06/29 09:30:30;;;;;;;9.30;5.32;;;11.80;99.90;;;;;;5051994;28;20404;-83
2022/06/29 09:33:05;;;;;;;8.98;4.93;;;11.80;99.90;;;;;;5051670;28;20483;-83
2022/06/29 09:35:34;;;;;;;7.57;4.70;;;11.80;99.90;;;;;;5051722;28;20379;-83
2022/06/29 09:38:23;;;;;;;7.07;4.20;;;11.80;99.90;;;;;;5051658;28;20368;-83
2022/06/29 09:41:17;;;;;;;8.88;4.03;;;11.70;99.90;;;;;;5050298;28;20851;-82
2022/06/29 09:43:46;;;;;;;6.40;3.75;;;11.60;99.90;;;;;;5049190;28;20473;-84
2022/06/29 09:46:15;;;;;;;8.48;4.00;;;11.40;99.90;;;;;;5051648;28;20844;-83
2022/06/29 09:48:43;;;;;;;8.10;4.30;;;11.40;99.90;;;;;;5051598;28;20898;-84
2022/06/29 09:51:30;;;;;;;11.40;4.63;;;11.30;99.90;;;;;;5052364;28;20371;-84
2022/06/29 09:54:10;;;;;;;12.80;5.50;;;11.30;99.90;;;;;;5051572;28;20400;-84
2022/06/29 09:56:47;;;;;;;13.32;6.43;;;11.20;99.90;;;;;;5051565;28;20364;-83
2022/06/29 10:05:15;;;;;;;10.03;5.33;;;11.10;99.90;;;;;;5058599;28;20382;-82
2022/06/29 10:07:53;;;;;;;12.93;5.75;;;11.00;99.90;;;;;;5053560;28;20372;-82
2022/06/29 10:10:23;;;;;;;9.38;4.55;;;11.00;99.90;;;;;;5053307;28;20821;-83
2022/06/29 10:13:40;;;;;;;8.50;4.88;;;11.10;99.90;;;;;;5052773;28;20411;-82
2022/06/29 10:16:46;;;;;;;8.30;4.70;;;11.10;99.90;;;;;;5052831;28;20463;-82
2022/06/29 10:19:32;;;;;;;7.87;5.50;;;11.20;99.90;;;;;;5052994;28;20396;-82
2022/06/29 10:22:01;;;;;;;9.23;5.00;;;11.20;99.90;;;;;;5053041;28;20858;-82
2022/06/29 10:24:30;;;;;;;8.73;5.10;;;11.20;99.90;;;;;;5052590;28;20376;-82
2022/06/29 10:27:04;;;;;;;9.32;4.68;;;11.20;99.90;;;;;;5052696;28;20410;-83
2022/06/29 10:29:32;;;;;;;7.00;4.30;;;11.20;99.90;;;;;;5053020;28;20371;-82
2022/06/29 10:32:05;;;;;;;6.45;4.47;;;11.20;99.90;;;;;;5052523;28;20391;-82
2022/06/29 10:34:33;;;;;;;9.50;4.30;;;11.20;99.90;;;;;;5052515;28;20427;-85
2022/06/29 10:37:04;;;;;;;6.38;4.00;;;11.20;99.90;;;;;;5052385;28;20371;-83
2022/06/29 10:39:48;;;;;;;6.90;4.00;;;11.20;99.90;;;;;;5053452;28;20375;-83
2022/06/29 10:45:17;;;;;;;10.20;3.75;;;11.10;99.90;;;;;;5054373;28;20379;-85
2022/06/29 10:48:06;;;;;;;7.15;4.05;;;11.10;99.90;;;;;;5054351;28;20380;-82
2022/06/29 10:50:34;;;;;;;11.50;7.50;;;11.10;99.90;;;;;;5054273;28;20396;-82
2022/06/29 10:53:07;;;;;;;8.77;5.05;;;11.00;99.90;;;;;;5054185;28;20406;-82
2022/06/29 10:55:36;;;;;;;10.35;7.05;;;11.00;99.90;;;;;;5052755;28;20379;-81
2022/06/29 10:58:04;;;;;;;16.40;10.35;;;11.00;99.90;;;;;;5054172;28;20379;-81
2022/06/29 11:00:31;;;;;;;17.25;12.90;;;11.00;99.90;;;;;;5054188;28;20373;-82
2022/06/29 11:03:26;;;;;;;16.50;14.10;;;11.00;99.90;;;;;;5055408;28;20376;-80
2022/06/29 11:17:01;;;;;;;12.07;7.60;;;10.70;99.90;;;;;;5054424;28;20732;-83
2022/06/29 11:19:34;;;;;;;13.98;7.47;;;10.60;99.90;;;;;;5053911;28;20388;-83
2022/06/29 11:22:08;;;;;;;12.88;6.88;;;10.60;99.90;;;;;;5053305;28;20380;-83
2022/06/29 11:25:02;;;;;;;13.13;7.07;;;10.60;99.90;;;;;;5053580;28;20383;-82
2022/06/29 11:27:35;;;;;;;10.63;6.95;;;10.80;99.90;;;;;;5053569;28;20443;-83
2022/06/29 11:30:07;;;;;;;12.70;8.93;;;10.90;99.90;;;;;;5052638;28;20380;-81
2022/06/29 11:32:42;;;;;;;25.30;21.43;;;10.90;99.90;;;;;;5053302;28;20392;-82
2022/06/29 11:35:10;;;;;;;14.60;8.60;;;10.90;99.90;;;;;;5053630;28;20387;-82
2022/06/29 11:37:38;;;;;;;26.85;19.48;;;10.90;99.90;;;;;;5057261;28;20403;-84
2022/06/29 11:40:06;;;;;;;17.80;12.73;;;11.00;99.90;;;;;;5053356;28;20382;-82
2022/06/29 11:45:19;;;;;;;12.38;7.15;;;11.00;99.90;;;;;;5054189;28;20387;-82
2022/06/29 11:47:54;;;;;;;11.98;7.13;;;10.90;99.90;;;;;;5054521;28;20384;-83
2022/06/29 11:50:24;;;;;;;14.73;7.88;;;10.90;99.90;;;;;;5053847;28;20368;-82
2022/06/29 11:52:51;;;;;;;12.80;6.68;;;10.80;99.90;;;;;;5053490;28;20399;-83
2022/06/29 11:55:44;;;;;;;13.65;6.97;;;10.80;99.90;;;;;;5053661;28;20372;-82
2022/06/29 11:58:14;;;;;;;11.40;6.85;;;10.80;99.90;;;;;;5053696;28;20454;-82
2022/06/29 12:00:43;;;;;;;13.13;7.60;;;10.80;99.90;;;;;;5053958;28;20363;-82
2022/06/29 12:03:14;;;;;;;14.02;7.40;;;10.70;99.90;;;;;;5055075;28;20402;-82
2022/06/29 12:05:57;;;;;;;9.77;6.95;;;10.70;99.90;;;;;;5063074;28;20398;-82
2022/06/29 12:08:28;;;;;;;11.35;7.05;;;10.60;99.90;;;;;;5060106;28;20376;-82
2022/06/29 12:10:55;;;;;;;12.32;7.20;;;10.60;99.90;;;;;;5060929;28;20904;-82
2022/06/29 12:13:22;;;;;;;12.07;7.57;;;10.50;99.90;;;;;;5057564;28;20545;-82
2022/06/29 12:15:49;;;;;;;13.40;7.00;;;10.40;99.90;;;;;;5055727;28;20403;-82
2022/06/29 12:18:19;;;;;;;14.10;7.40;;;10.40;99.90;;;;;;5053606;28;20395;-82
2022/06/29 12:20:46;;;;;;;10.48;7.03;;;10.40;99.90;;;;;;5053300;28;20394;-82
2022/06/29 12:23:14;;;;;;;11.85;7.40;;;10.40;99.90;;;;;;5052839;28;20372;-83
2022/06/29 12:25:41;;;;;;;11.43;7.22;;;10.30;99.90;;;;;;5052154;28;20380;-83
2022/06/29 12:28:08;;;;;;;14.15;8.10;;;10.30;99.90;;;;;;5052606;28;20447;-83
2022/06/29 12:30:36;;;;;;;11.52;8.25;;;10.30;99.90;;;;;;5052434;28;20422;-83
2022/06/29 12:33:04;;;;;;;16.13;8.75;;;10.30;99.90;;;;;;5052482;28;20804;-83
2022/06/29 12:35:31;;;;;;;12.57;8.65;;;10.30;99.90;;;;;;5053315;28;20372;-83
2022/06/29 12:37:59;;;;;;;12.38;8.88;;;10.20;99.90;;;;;;5052425;28;20376;-83
2022/06/29 12:40:26;;;;;;;15.48;9.07;;;10.20;99.90;;;;;;5052791;28;20372;-83
2022/06/29 12:42:54;;;;;;;12.73;7.97;;;10.10;99.90;;;;;;5053626;28;20363;-82
2022/06/29 12:45:21;;;;;;;11.43;8.07;;;9.90;99.90;;;;;;5052451;28;20945;-82
2022/06/29 12:47:48;;;;;;;12.77;8.13;;;10.00;99.90;;;;;;5052758;28;20844;-83
2022/06/29 12:50:16;;;;;;;12.05;7.70;;;9.90;99.90;;;;;;5052335;28;20438;-83
2022/06/29 12:52:46;;;;;;;13.25;7.72;;;9.90;99.90;;;;;;5052137;28;20388;-82
2022/06/29 12:55:14;;;;;;;13.13;7.70;;;9.80;99.90;;;;;;5052058;28;20372;-82
2022/06/29 12:57:42;;;;;;;12.00;7.90;;;9.80;99.90;;;;;;5052171;28;20372;-83
2022/06/29 13:00:11;;;;;;;10.77;7.50;;;9.70;99.90;;;;;;5052434;28;20387;-82
2022/06/29 13:02:38;;;;;;;11.03;8.00;;;9.70;99.90;;;;;;5052518;28;20383;-81
2022/06/29 13:05:10;;;;;;;11.93;8.00;;;9.70;99.90;;;;;;5052114;28;20868;-82
2022/06/29 13:07:38;;;;;;;12.57;7.60;;;9.70;99.90;;;;;;5052604;28;20446;-82
2022/06/29 13:10:06;;;;;;;13.32;8.35;;;9.70;99.90;;;;;;5052129;28;20368;-82
2022/06/29 13:12:34;;;;;;;11.45;7.90;;;9.60;99.90;;;;;;5051976;28;20387;-82
2022/06/29 13:15:01;;;;;;;12.33;8.00;;;9.60;99.90;;;;;;5052406;28;20380;-83
2022/06/29 13:17:28;;;;;;;12.70;7.75;;;9.60;99.90;;;;;;5052389;28;20379;-85
2022/06/29 13:19:59;;;;;;;11.30;7.60;;;9.60;99.90;;;;;;5052293;28;20398;-81
2022/06/29 13:22:27;;;;;;;11.18;7.10;;;9.70;99.90;;;;;;5051932;28;20380;-82
2022/06/29 13:24:54;;;;;;;12.35;7.22;;;9.70;99.90;;;;;;5052174;28;20391;-82
2022/06/29 13:27:21;;;;;;;11.75;7.38;;;9.70;99.90;;;;;;5051907;28;20847;-82